Long Beach, CA (90806)

11:27 AM PDT on March 31, 2015 (GMT -0700)
Bixby Terrace | | Change Station
CLOSE
Current Station
Personal Weather Station
Location: Long Beach, CA
Elevation: 45 ft
Nearby Weather Stations
Active Advisory: Beach Hazard Statement Active Notice: Record Report

Elev 45 ft 33.83 °N, 118.17 °W | Updated 5 seconds ago

Clear
Clear
66.8 °F
Feels Like 66.8 °F
N
6.0
Wind Variable Wind from South
Gusts 9.0 mph

Today
High -- | Low -- °F
--% Chance of Precip.
Yesterday
High -- | Low -- °F
Precip. -- in
6:41 AM 7:12 PM
Waxing Gibbous, 88% visible
Pressure 30.03 in
Visibility 10.0 miles
Clouds Clear
Dew Point 56 °F
Humidity 67%
Rainfall 0.00 in
Snow Depth Not available.
UV 7 out of 12
Pollen 8.90 out of 12
Air Quality Not available.
Flu Activity Not available.
METAR KLGB 311753Z 15003KT 10SM CLR 19/12 A3003 RMK AO2 SLP168 T01890122 10189 20144 51010

More Conditions Fewer Conditions

Pressure 30.03 in
Visibility 10.0 miles
Clouds Clear
Dew Point 56 °F
Humidity 67%
Rainfall 0.00 in
Snow Depth Not available.
UV 7 out of 12
Pollen 8.90 out of 12
Air Quality Not available.
Flu Activity Not available.
METAR KLGB 311753Z 15003KT 10SM CLR 19/12 A3003 RMK AO2 SLP168 T01890122 10189 20144 51010

More Conditions Fewer Conditions

10-Day Weather Forecast

Almanac

Astronomy

Mar. 31, 2015 Rise Set
Actual Time
Civil Twilight
Nautical Twilight
Astronomical Twilight
Moon
Length of Visible Light
Length of Day
Tomorrow will be .
, % of the Moon is Illuminated

Today's Extremes

State Highs State Lows

Community

WunderPhotos

Upload Photos

1,809,787 photos uploaded!

WunderBlogs® & News

Nearby

Air Quality

  Air Quality AQ Index Pollutant
Not available.

Snow Depth

Station Depth Elevation

Earthquake Activity

City Distance Mag. Time & Date
Minimum magnitude displayed is 2.5.

Coastal Water Temperatures

Place Temperature

Stations

Nearby Weather Stations

Station Location Temp. Windchill Dew Point Humidity Wind Precip. Elev Updated Type
                   
Beach Hazard Statement
Statement as of 2:23 AM PDT on March 31, 2015

... Beach hazards statement now in effect through late Wednesday
night...

* hazards... dangerous rip currents and breaking waves on coastal
rock jetties are expected through Wednesday night.

* Impacts... there is an increased risk for ocean drowning. Rip
currents can pull swimmers and surfers out to sea. Waves can
suddenly wash people off of beaches and coastal rock jetties.

Precautionary/preparedness actions...

A beach hazards statement is issued when threats to beach and
surf zone safety are expected or occurring. Caution should be
used when in or near the water. Stay near occupied lifeguard
towers and never swim alone. If caught in a rip current... swim
parallel to the shore.